sensor_id;sensor_type;location;lat;lon;timestamp;P1;durP1;ratioP1;P2;durP2;ratioP2
41426;SDS011;27171;51.812;19.514;2023-04-03T00:01:20;4.28;;;0.88;;
41426;SDS011;27171;51.812;19.514;2023-04-03T00:04:21;3.67;;;1.08;;
41426;SDS011;27171;51.812;19.514;2023-04-03T00:07:22;5.13;;;1.35;;
41426;SDS011;27171;51.812;19.514;2023-04-03T00:13:24;5.45;;;1.40;;
41426;SDS011;27171;51.812;19.514;2023-04-03T00:16:25;2.75;;;1.08;;
41426;SDS011;27171;51.812;19.514;2023-04-03T00:19:26;3.78;;;1.25;;
41426;SDS011;27171;51.812;19.514;2023-04-03T00:25:28;2.53;;;0.93;;
41426;SDS011;27171;51.812;19.514;2023-04-03T00:28:29;3.55;;;1.02;;
41426;SDS011;27171;51.812;19.514;2023-04-03T00:31:31;3.15;;;1.33;;
41426;SDS011;27171;51.812;19.514;2023-04-03T00:34:32;3.15;;;1.08;;
41426;SDS011;27171;51.812;19.514;2023-04-03T00:37:33;2.70;;;1.25;;
41426;SDS011;27171;51.812;19.514;2023-04-03T00:43:42;5.10;;;1.13;;
41426;SDS011;27171;51.812;19.514;2023-04-03T00:46:43;4.43;;;0.98;;
41426;SDS011;27171;51.812;19.514;2023-04-03T00:49:44;4.50;;;1.38;;
41426;SDS011;27171;51.812;19.514;2023-04-03T00:52:45;5.03;;;1.17;;
41426;SDS011;27171;51.812;19.514;2023-04-03T00:55:48;3.47;;;1.10;;
41426;SDS011;27171;51.812;19.514;2023-04-03T00:59:00;3.58;;;1.17;;
41426;SDS011;27171;51.812;19.514;2023-04-03T01:02:04;6.05;;;1.70;;
41426;SDS011;27171;51.812;19.514;2023-04-03T01:05:06;3.08;;;1.05;;
41426;SDS011;27171;51.812;19.514;2023-04-03T01:08:07;3.35;;;1.02;;
41426;SDS011;27171;51.812;19.514;2023-04-03T01:11:08;3.85;;;0.80;;
41426;SDS011;27171;51.812;19.514;2023-04-03T01:14:10;3.70;;;1.20;;
41426;SDS011;27171;51.812;19.514;2023-04-03T01:27:07;3.10;;;0.95;;
41426;SDS011;27171;51.812;19.514;2023-04-03T01:30:11;2.63;;;1.10;;
41426;SDS011;27171;51.812;19.514;2023-04-03T01:33:17;2.65;;;1.00;;
41426;SDS011;27171;51.812;19.514;2023-04-03T01:36:24;5.03;;;1.20;;
41426;SDS011;27171;51.812;19.514;2023-04-03T01:39:28;3.75;;;1.85;;
41426;SDS011;27171;51.812;19.514;2023-04-03T01:42:29;3.03;;;0.82;;
41426;SDS011;27171;51.812;19.514;2023-04-03T01:45:31;4.70;;;0.90;;
41426;SDS011;27171;51.812;19.514;2023-04-03T01:48:32;3.05;;;1.20;;
41426;SDS011;27171;51.812;19.514;2023-04-03T01:51:33;4.68;;;1.08;;
41426;SDS011;27171;51.812;19.514;2023-04-03T01:57:35;4.03;;;1.10;;
41426;SDS011;27171;51.812;19.514;2023-04-03T02:00:36;3.28;;;1.00;;
41426;SDS011;27171;51.812;19.514;2023-04-03T02:03:37;2.50;;;0.82;;
41426;SDS011;27171;51.812;19.514;2023-04-03T02:06:38;4.10;;;1.20;;
41426;SDS011;27171;51.812;19.514;2023-04-03T02:09:40;3.45;;;1.20;;
41426;SDS011;27171;51.812;19.514;2023-04-03T02:12:42;4.32;;;1.00;;
41426;SDS011;27171;51.812;19.514;2023-04-03T02:15:43;2.72;;;0.90;;
41426;SDS011;27171;51.812;19.514;2023-04-03T02:18:44;3.50;;;0.80;;
41426;SDS011;27171;51.812;19.514;2023-04-03T02:21:45;4.10;;;1.20;;
41426;SDS011;27171;51.812;19.514;2023-04-03T02:24:48;3.22;;;0.90;;
41426;SDS011;27171;51.812;19.514;2023-04-03T02:30:50;2.17;;;0.75;;
41426;SDS011;27171;51.812;19.514;2023-04-03T02:33:52;2.45;;;0.80;;
41426;SDS011;27171;51.812;19.514;2023-04-03T02:36:53;3.83;;;1.17;;
41426;SDS011;27171;51.812;19.514;2023-04-03T02:39:54;3.72;;;1.05;;
41426;SDS011;27171;51.812;19.514;2023-04-03T02:42:55;2.67;;;1.05;;
41426;SDS011;27171;51.812;19.514;2023-04-03T02:45:58;3.63;;;1.10;;
41426;SDS011;27171;51.812;19.514;2023-04-03T02:48:59;3.00;;;1.15;;
41426;SDS011;27171;51.812;19.514;2023-04-03T02:52:00;2.70;;;0.85;;
41426;SDS011;27171;51.812;19.514;2023-04-03T02:58:02;3.92;;;0.80;;
41426;SDS011;27171;51.812;19.514;2023-04-03T03:01:04;3.30;;;0.90;;
41426;SDS011;27171;51.812;19.514;2023-04-03T03:04:05;3.25;;;1.02;;
41426;SDS011;27171;51.812;19.514;2023-04-03T03:10:07;3.70;;;0.88;;
41426;SDS011;27171;51.812;19.514;2023-04-03T03:13:09;3.08;;;1.10;;
41426;SDS011;27171;51.812;19.514;2023-04-03T03:16:10;3.40;;;1.05;;
41426;SDS011;27171;51.812;19.514;2023-04-03T03:22:11;3.00;;;1.35;;
41426;SDS011;27171;51.812;19.514;2023-04-03T03:28:13;3.78;;;0.98;;
41426;SDS011;27171;51.812;19.514;2023-04-03T03:31:15;4.20;;;1.10;;
41426;SDS011;27171;51.812;19.514;2023-04-03T03:34:16;4.85;;;1.48;;
41426;SDS011;27171;51.812;19.514;2023-04-03T03:37:17;5.65;;;1.83;;
41426;SDS011;27171;51.812;19.514;2023-04-03T03:40:18;3.60;;;1.30;;
41426;SDS011;27171;51.812;19.514;2023-04-03T03:43:22;3.80;;;1.42;;
41426;SDS011;27171;51.812;19.514;2023-04-03T03:46:25;2.88;;;0.80;;
41426;SDS011;27171;51.812;19.514;2023-04-03T03:49:27;4.10;;;1.10;;
41426;SDS011;27171;51.812;19.514;2023-04-03T03:52:28;4.40;;;1.35;;
41426;SDS011;27171;51.812;19.514;2023-04-03T03:58:32;4.43;;;1.05;;
41426;SDS011;27171;51.812;19.514;2023-04-03T04:01:33;4.00;;;0.98;;
41426;SDS011;27171;51.812;19.514;2023-04-03T04:04:35;2.85;;;0.82;;
41426;SDS011;27171;51.812;19.514;2023-04-03T04:07:37;3.60;;;0.75;;
41426;SDS011;27171;51.812;19.514;2023-04-03T04:10:38;3.42;;;0.90;;
41426;SDS011;27171;51.812;19.514;2023-04-03T04:13:40;3.17;;;0.73;;
41426;SDS011;27171;51.812;19.514;2023-04-03T04:16:43;3.88;;;1.40;;
41426;SDS011;27171;51.812;19.514;2023-04-03T04:19:49;2.85;;;1.05;;
41426;SDS011;27171;51.812;19.514;2023-04-03T04:22:51;2.70;;;0.95;;
41426;SDS011;27171;51.812;19.514;2023-04-03T04:25:53;2.38;;;0.90;;
41426;SDS011;27171;51.812;19.514;2023-04-03T04:28:55;3.30;;;1.33;;
41426;SDS011;27171;51.812;19.514;2023-04-03T04:31:56;3.08;;;0.93;;
41426;SDS011;27171;51.812;19.514;2023-04-03T04:34:58;3.05;;;0.95;;
41426;SDS011;27171;51.812;19.514;2023-04-03T04:38:00;5.05;;;1.23;;
41426;SDS011;27171;51.812;19.514;2023-04-03T04:41:01;4.28;;;1.27;;
41426;SDS011;27171;51.812;19.514;2023-04-03T04:44:02;2.47;;;1.00;;
41426;SDS011;27171;51.812;19.514;2023-04-03T04:47:04;3.70;;;1.38;;
41426;SDS011;27171;51.812;19.514;2023-04-03T04:50:05;4.85;;;0.82;;
41426;SDS011;27171;51.812;19.514;2023-04-03T04:53:06;5.03;;;1.00;;
41426;SDS011;27171;51.812;19.514;2023-04-03T04:56:08;3.38;;;0.82;;
41426;SDS011;27171;51.812;19.514;2023-04-03T04:59:10;6.25;;;0.93;;
41426;SDS011;27171;51.812;19.514;2023-04-03T05:02:12;5.18;;;1.30;;
41426;SDS011;27171;51.812;19.514;2023-04-03T05:05:14;2.33;;;1.30;;
41426;SDS011;27171;51.812;19.514;2023-04-03T05:08:16;4.45;;;1.15;;
41426;SDS011;27171;51.812;19.514;2023-04-03T05:11:17;4.60;;;1.60;;
41426;SDS011;27171;51.812;19.514;2023-04-03T05:14:20;3.47;;;1.33;;
41426;SDS011;27171;51.812;19.514;2023-04-03T05:17:22;4.63;;;1.20;;
41426;SDS011;27171;51.812;19.514;2023-04-03T05:20:26;6.82;;;1.10;;
41426;SDS011;27171;51.812;19.514;2023-04-03T05:23:28;3.30;;;1.15;;
41426;SDS011;27171;51.812;19.514;2023-04-03T05:26:31;3.72;;;0.90;;
41426;SDS011;27171;51.812;19.514;2023-04-03T05:29:33;4.85;;;1.20;;
41426;SDS011;27171;51.812;19.514;2023-04-03T05:32:35;4.70;;;1.23;;
41426;SDS011;27171;51.812;19.514;2023-04-03T05:35:47;4.13;;;1.10;;
41426;SDS011;27171;51.812;19.514;2023-04-03T05:38:53;2.97;;;1.27;;
41426;SDS011;27171;51.812;19.514;2023-04-03T05:41:54;3.55;;;1.23;;
41426;SDS011;27171;51.812;19.514;2023-04-03T05:44:59;4.18;;;1.30;;
41426;SDS011;27171;51.812;19.514;2023-04-03T05:48:00;4.85;;;1.63;;
41426;SDS011;27171;51.812;19.514;2023-04-03T05:51:02;4.10;;;1.50;;
41426;SDS011;27171;51.812;19.514;2023-04-03T05:54:08;7.35;;;1.80;;
41426;SDS011;27171;51.812;19.514;2023-04-03T05:57:18;4.78;;;1.70;;
41426;SDS011;27171;51.812;19.514;2023-04-03T06:00:20;5.65;;;1.70;;
41426;SDS011;27171;51.812;19.514;2023-04-03T06:03:30;5.55;;;1.63;;
41426;SDS011;27171;51.812;19.514;2023-04-03T06:09:48;6.25;;;1.10;;
41426;SDS011;27171;51.812;19.514;2023-04-03T06:12:50;5.03;;;1.60;;
41426;SDS011;27171;51.812;19.514;2023-04-03T06:15:52;4.00;;;1.33;;
41426;SDS011;27171;51.812;19.514;2023-04-03T06:18:53;4.15;;;1.88;;
41426;SDS011;27171;51.812;19.514;2023-04-03T06:21:54;5.75;;;2.47;;
41426;SDS011;27171;51.812;19.514;2023-04-03T06:24:55;5.10;;;1.83;;
41426;SDS011;27171;51.812;19.514;2023-04-03T06:27:57;5.63;;;1.92;;
41426;SDS011;27171;51.812;19.514;2023-04-03T06:30:58;6.25;;;2.10;;
41426;SDS011;27171;51.812;19.514;2023-04-03T06:40:01;4.78;;;1.60;;
41426;SDS011;27171;51.812;19.514;2023-04-03T06:43:03;2.97;;;1.63;;
41426;SDS011;27171;51.812;19.514;2023-04-03T06:52:07;3.40;;;1.40;;
41426;SDS011;27171;51.812;19.514;2023-04-03T06:55:09;5.30;;;1.77;;
41426;SDS011;27171;51.812;19.514;2023-04-03T06:58:11;4.57;;;1.98;;
41426;SDS011;27171;51.812;19.514;2023-04-03T07:01:12;5.10;;;1.80;;
41426;SDS011;27171;51.812;19.514;2023-04-03T07:04:15;5.85;;;2.20;;
41426;SDS011;27171;51.812;19.514;2023-04-03T07:07:16;5.90;;;2.20;;
41426;SDS011;27171;51.812;19.514;2023-04-03T07:13:18;2.95;;;1.08;;
41426;SDS011;27171;51.812;19.514;2023-04-03T07:19:20;4.40;;;1.23;;
41426;SDS011;27171;51.812;19.514;2023-04-03T07:22:21;4.47;;;1.05;;
41426;SDS011;27171;51.812;19.514;2023-04-03T07:25:23;3.67;;;0.90;;
41426;SDS011;27171;51.812;19.514;2023-04-03T07:28:24;4.35;;;0.93;;
41426;SDS011;27171;51.812;19.514;2023-04-03T07:31:25;4.18;;;1.10;;
41426;SDS011;27171;51.812;19.514;2023-04-03T07:34:26;6.18;;;1.08;;
41426;SDS011;27171;51.812;19.514;2023-04-03T07:37:27;3.78;;;1.30;;
41426;SDS011;27171;51.812;19.514;2023-04-03T07:40:28;4.10;;;1.48;;
41426;SDS011;27171;51.812;19.514;2023-04-03T07:43:30;4.43;;;0.90;;
41426;SDS011;27171;51.812;19.514;2023-04-03T07:49:32;2.70;;;0.70;;
41426;SDS011;27171;51.812;19.514;2023-04-03T07:55:34;2.20;;;0.70;;
41426;SDS011;27171;51.812;19.514;2023-04-03T07:58:35;3.03;;;0.88;;
41426;SDS011;27171;51.812;19.514;2023-04-03T08:01:37;3.75;;;1.10;;
41426;SDS011;27171;51.812;19.514;2023-04-03T08:04:38;5.18;;;1.30;;
41426;SDS011;27171;51.812;19.514;2023-04-03T08:07:39;2.45;;;0.80;;
41426;SDS011;27171;51.812;19.514;2023-04-03T08:10:40;4.05;;;0.93;;
41426;SDS011;27171;51.812;19.514;2023-04-03T08:13:41;3.42;;;0.80;;
41426;SDS011;27171;51.812;19.514;2023-04-03T08:19:44;2.90;;;0.85;;
41426;SDS011;27171;51.812;19.514;2023-04-03T08:25:46;4.00;;;0.93;;
41426;SDS011;27171;51.812;19.514;2023-04-03T08:28:47;4.40;;;1.33;;
41426;SDS011;27171;51.812;19.514;2023-04-03T08:31:49;4.20;;;1.33;;
41426;SDS011;27171;51.812;19.514;2023-04-03T08:34:50;3.97;;;1.17;;
41426;SDS011;27171;51.812;19.514;2023-04-03T08:37:52;4.53;;;1.42;;
41426;SDS011;27171;51.812;19.514;2023-04-03T08:47:18;3.13;;;0.90;;
41426;SDS011;27171;51.812;19.514;2023-04-03T08:50:34;4.45;;;0.95;;
41426;SDS011;27171;51.812;19.514;2023-04-03T08:53:40;2.30;;;0.70;;
41426;SDS011;27171;51.812;19.514;2023-04-03T08:56:44;3.13;;;1.48;;
41426;SDS011;27171;51.812;19.514;2023-04-03T08:59:46;4.80;;;1.00;;
41426;SDS011;27171;51.812;19.514;2023-04-03T09:15:28;5.32;;;2.42;;
41426;SDS011;27171;51.812;19.514;2023-04-03T09:21:39;3.78;;;0.70;;
41426;SDS011;27171;51.812;19.514;2023-04-03T09:24:40;2.38;;;0.80;;
41426;SDS011;27171;51.812;19.514;2023-04-03T09:27:42;4.32;;;0.73;;
41426;SDS011;27171;51.812;19.514;2023-04-03T09:30:44;1.85;;;0.70;;
41426;SDS011;27171;51.812;19.514;2023-04-03T09:36:47;6.40;;;1.40;;
41426;SDS011;27171;51.812;19.514;2023-04-03T09:39:52;2.22;;;0.95;;
41426;SDS011;27171;51.812;19.514;2023-04-03T09:42:54;2.28;;;0.70;;
41426;SDS011;27171;51.812;19.514;2023-04-03T09:51:08;2.60;;;0.90;;
41426;SDS011;27171;51.812;19.514;2023-04-03T09:57:32;3.25;;;0.70;;
41426;SDS011;27171;51.812;19.514;2023-04-03T10:00:35;2.38;;;0.60;;
41426;SDS011;27171;51.812;19.514;2023-04-03T10:03:38;3.33;;;0.80;;
41426;SDS011;27171;51.812;19.514;2023-04-03T10:06:43;2.58;;;0.93;;
41426;SDS011;27171;51.812;19.514;2023-04-03T10:09:54;4.47;;;1.23;;
41426;SDS011;27171;51.812;19.514;2023-04-03T10:13:05;2.78;;;0.60;;
41426;SDS011;27171;51.812;19.514;2023-04-03T10:16:11;3.47;;;0.90;;
41426;SDS011;27171;51.812;19.514;2023-04-03T10:19:57;3.38;;;0.75;;
41426;SDS011;27171;51.812;19.514;2023-04-03T10:29:34;3.17;;;0.90;;
41426;SDS011;27171;51.812;19.514;2023-04-03T10:55:30;3.05;;;0.60;;
41426;SDS011;27171;51.812;19.514;2023-04-03T10:58:38;5.22;;;0.68;;
41426;SDS011;27171;51.812;19.514;2023-04-03T11:01:42;2.67;;;0.50;;
41426;SDS011;27171;51.812;19.514;2023-04-03T11:04:48;2.05;;;0.50;;
41426;SDS011;27171;51.812;19.514;2023-04-03T11:07:57;2.65;;;1.08;;
41426;SDS011;27171;51.812;19.514;2023-04-03T11:11:24;2.40;;;0.80;;
41426;SDS011;27171;51.812;19.514;2023-04-03T11:14:31;2.20;;;0.77;;
41426;SDS011;27171;51.812;19.514;2023-04-03T11:17:38;1.30;;;0.70;;
41426;SDS011;27171;51.812;19.514;2023-04-03T11:20:49;4.55;;;0.75;;
41426;SDS011;27171;51.812;19.514;2023-04-03T11:23:59;2.30;;;0.50;;
41426;SDS011;27171;51.812;19.514;2023-04-03T11:27:02;2.22;;;0.60;;
41426;SDS011;27171;51.812;19.514;2023-04-03T11:30:05;2.03;;;0.77;;
41426;SDS011;27171;51.812;19.514;2023-04-03T11:33:19;1.85;;;0.57;;
41426;SDS011;27171;51.812;19.514;2023-04-03T11:36:31;3.13;;;0.50;;
41426;SDS011;27171;51.812;19.514;2023-04-03T11:39:45;2.25;;;1.05;;
41426;SDS011;27171;51.812;19.514;2023-04-03T11:46:03;1.55;;;0.40;;
41426;SDS011;27171;51.812;19.514;2023-04-03T11:49:08;1.55;;;0.55;;
41426;SDS011;27171;51.812;19.514;2023-04-03T11:58:42;4.15;;;0.55;;
41426;SDS011;27171;51.812;19.514;2023-04-03T12:02:21;2.38;;;0.60;;
41426;SDS011;27171;51.812;19.514;2023-04-03T12:05:37;2.72;;;0.60;;
41426;SDS011;27171;51.812;19.514;2023-04-03T12:14:40;2.90;;;0.60;;
41426;SDS011;27171;51.812;19.514;2023-04-03T12:17:42;1.70;;;0.65;;
41426;SDS011;27171;51.812;19.514;2023-04-03T12:20:52;1.65;;;0.70;;
41426;SDS011;27171;51.812;19.514;2023-04-03T12:24:04;2.15;;;0.60;;
41426;SDS011;27171;51.812;19.514;2023-04-03T12:27:14;2.38;;;0.55;;
41426;SDS011;27171;51.812;19.514;2023-04-03T12:30:26;1.95;;;0.70;;
41426;SDS011;27171;51.812;19.514;2023-04-03T12:36:58;2.83;;;0.65;;
41426;SDS011;27171;51.812;19.514;2023-04-03T12:40:21;4.18;;;0.80;;
41426;SDS011;27171;51.812;19.514;2023-04-03T12:43:35;2.95;;;0.98;;
41426;SDS011;27171;51.812;19.514;2023-04-03T12:46:48;1.55;;;0.47;;
41426;SDS011;27171;51.812;19.514;2023-04-03T12:49:50;2.22;;;0.50;;
41426;SDS011;27171;51.812;19.514;2023-04-03T12:52:57;2.70;;;0.70;;
41426;SDS011;27171;51.812;19.514;2023-04-03T12:59:26;2.05;;;0.40;;
41426;SDS011;27171;51.812;19.514;2023-04-03T13:02:32;1.60;;;0.40;;
41426;SDS011;27171;51.812;19.514;2023-04-03T13:05:35;1.83;;;0.70;;
41426;SDS011;27171;51.812;19.514;2023-04-03T13:08:36;1.70;;;0.50;;
41426;SDS011;27171;51.812;19.514;2023-04-03T13:11:38;4.63;;;0.55;;
41426;SDS011;27171;51.812;19.514;2023-04-03T13:14:51;4.22;;;0.95;;
41426;SDS011;27171;51.812;19.514;2023-04-03T13:17:54;3.97;;;1.35;;
41426;SDS011;27171;51.812;19.514;2023-04-03T13:24:15;2.55;;;0.70;;
41426;SDS011;27171;51.812;19.514;2023-04-03T13:27:16;1.88;;;0.68;;
41426;SDS011;27171;51.812;19.514;2023-04-03T13:30:26;1.77;;;0.50;;
41426;SDS011;27171;51.812;19.514;2023-04-03T13:33:30;1.75;;;0.50;;
41426;SDS011;27171;51.812;19.514;2023-04-03T13:36:34;3.33;;;0.60;;
41426;SDS011;27171;51.812;19.514;2023-04-03T13:39:39;2.13;;;0.68;;
41426;SDS011;27171;51.812;19.514;2023-04-03T13:42:41;3.45;;;0.70;;
41426;SDS011;27171;51.812;19.514;2023-04-03T13:45:54;1.92;;;0.60;;
41426;SDS011;27171;51.812;19.514;2023-04-03T13:49:17;2.60;;;0.70;;
41426;SDS011;27171;51.812;19.514;2023-04-03T13:52:33;2.63;;;1.00;;
41426;SDS011;27171;51.812;19.514;2023-04-03T13:59:00;2.00;;;0.55;;
41426;SDS011;27171;51.812;19.514;2023-04-03T14:05:16;2.35;;;0.63;;
41426;SDS011;27171;51.812;19.514;2023-04-03T14:14:21;3.85;;;0.70;;
41426;SDS011;27171;51.812;19.514;2023-04-03T14:17:27;3.38;;;0.93;;
41426;SDS011;27171;51.812;19.514;2023-04-03T14:20:29;3.13;;;0.70;;
41426;SDS011;27171;51.812;19.514;2023-04-03T14:23:30;2.33;;;0.70;;
41426;SDS011;27171;51.812;19.514;2023-04-03T14:29:32;3.13;;;0.60;;
41426;SDS011;27171;51.812;19.514;2023-04-03T14:32:34;3.50;;;0.90;;
41426;SDS011;27171;51.812;19.514;2023-04-03T14:35:35;2.65;;;1.00;;
41426;SDS011;27171;51.812;19.514;2023-04-03T14:38:37;4.15;;;1.25;;
41426;SDS011;27171;51.812;19.514;2023-04-03T14:41:38;2.17;;;0.82;;
41426;SDS011;27171;51.812;19.514;2023-04-03T14:44:39;2.47;;;0.73;;
41426;SDS011;27171;51.812;19.514;2023-04-03T14:47:51;3.70;;;1.40;;
41426;SDS011;27171;51.812;19.514;2023-04-03T14:50:53;2.25;;;0.88;;
41426;SDS011;27171;51.812;19.514;2023-04-03T14:53:54;4.38;;;1.10;;
41426;SDS011;27171;51.812;19.514;2023-04-03T14:56:56;3.17;;;1.13;;
41426;SDS011;27171;51.812;19.514;2023-04-03T14:59:59;2.45;;;0.98;;
41426;SDS011;27171;51.812;19.514;2023-04-03T15:06:01;8.18;;;3.65;;
41426;SDS011;27171;51.812;19.514;2023-04-03T15:09:05;3.90;;;1.42;;
41426;SDS011;27171;51.812;19.514;2023-04-03T15:12:24;2.00;;;0.57;;
41426;SDS011;27171;51.812;19.514;2023-04-03T15:15:28;5.38;;;3.22;;
41426;SDS011;27171;51.812;19.514;2023-04-03T15:18:31;3.03;;;1.10;;
41426;SDS011;27171;51.812;19.514;2023-04-03T15:21:37;3.28;;;1.05;;
41426;SDS011;27171;51.812;19.514;2023-04-03T15:24:39;5.20;;;2.25;;
41426;SDS011;27171;51.812;19.514;2023-04-03T15:30:41;2.47;;;0.60;;
41426;SDS011;27171;51.812;19.514;2023-04-03T15:33:42;2.72;;;0.93;;
41426;SDS011;27171;51.812;19.514;2023-04-03T15:39:44;3.35;;;0.80;;
41426;SDS011;27171;51.812;19.514;2023-04-03T15:42:45;2.47;;;0.95;;
41426;SDS011;27171;51.812;19.514;2023-04-03T15:45:46;5.47;;;1.38;;
41426;SDS011;27171;51.812;19.514;2023-04-03T15:48:48;4.18;;;1.70;;
41426;SDS011;27171;51.812;19.514;2023-04-03T15:51:49;3.63;;;1.17;;
41426;SDS011;27171;51.812;19.514;2023-04-03T15:54:50;5.18;;;1.45;;
41426;SDS011;27171;51.812;19.514;2023-04-03T16:03:54;2.20;;;0.82;;
41426;SDS011;27171;51.812;19.514;2023-04-03T16:06:55;2.55;;;0.90;;
41426;SDS011;27171;51.812;19.514;2023-04-03T16:09:56;2.97;;;0.65;;
41426;SDS011;27171;51.812;19.514;2023-04-03T16:12:57;3.10;;;0.90;;
41426;SDS011;27171;51.812;19.514;2023-04-03T16:15:58;2.88;;;0.90;;
41426;SDS011;27171;51.812;19.514;2023-04-03T16:19:00;4.22;;;1.38;;
41426;SDS011;27171;51.812;19.514;2023-04-03T16:22:01;2.78;;;1.20;;
41426;SDS011;27171;51.812;19.514;2023-04-03T16:25:04;2.72;;;0.90;;
41426;SDS011;27171;51.812;19.514;2023-04-03T16:28:06;3.20;;;1.30;;
41426;SDS011;27171;51.812;19.514;2023-04-03T16:31:09;3.85;;;1.10;;
41426;SDS011;27171;51.812;19.514;2023-04-03T16:34:10;18.85;;;8.50;;
41426;SDS011;27171;51.812;19.514;2023-04-03T16:37:12;8.00;;;3.95;;
41426;SDS011;27171;51.812;19.514;2023-04-03T16:43:14;4.88;;;1.80;;
41426;SDS011;27171;51.812;19.514;2023-04-03T16:46:16;5.30;;;2.47;;
41426;SDS011;27171;51.812;19.514;2023-04-03T16:49:18;4.53;;;1.70;;
41426;SDS011;27171;51.812;19.514;2023-04-03T16:52:19;4.68;;;1.10;;
41426;SDS011;27171;51.812;19.514;2023-04-03T16:55:21;4.65;;;1.65;;
41426;SDS011;27171;51.812;19.514;2023-04-03T17:01:23;5.03;;;1.35;;
41426;SDS011;27171;51.812;19.514;2023-04-03T17:07:25;4.60;;;1.20;;
41426;SDS011;27171;51.812;19.514;2023-04-03T17:10:27;6.22;;;1.88;;
41426;SDS011;27171;51.812;19.514;2023-04-03T17:13:28;8.52;;;1.88;;
41426;SDS011;27171;51.812;19.514;2023-04-03T17:19:31;3.97;;;1.50;;
41426;SDS011;27171;51.812;19.514;2023-04-03T17:22:33;4.78;;;1.50;;
41426;SDS011;27171;51.812;19.514;2023-04-03T17:25:34;3.13;;;1.17;;
41426;SDS011;27171;51.812;19.514;2023-04-03T17:31:36;3.67;;;1.13;;
41426;SDS011;27171;51.812;19.514;2023-04-03T17:34:37;4.40;;;1.35;;
41426;SDS011;27171;51.812;19.514;2023-04-03T17:43:40;2.05;;;0.80;;
41426;SDS011;27171;51.812;19.514;2023-04-03T17:46:42;4.47;;;0.98;;
41426;SDS011;27171;51.812;19.514;2023-04-03T17:49:43;4.38;;;1.58;;
41426;SDS011;27171;51.812;19.514;2023-04-03T17:52:46;3.55;;;1.20;;
41426;SDS011;27171;51.812;19.514;2023-04-03T17:58:49;3.83;;;1.90;;
41426;SDS011;27171;51.812;19.514;2023-04-03T18:01:51;3.20;;;1.20;;
41426;SDS011;27171;51.812;19.514;2023-04-03T18:07:53;5.05;;;1.35;;
41426;SDS011;27171;51.812;19.514;2023-04-03T18:10:54;3.53;;;1.58;;
41426;SDS011;27171;51.812;19.514;2023-04-03T18:13:56;3.42;;;1.77;;
41426;SDS011;27171;51.812;19.514;2023-04-03T18:17:00;3.97;;;1.58;;
41426;SDS011;27171;51.812;19.514;2023-04-03T18:20:01;6.28;;;2.03;;
41426;SDS011;27171;51.812;19.514;2023-04-03T18:23:05;3.90;;;1.58;;
41426;SDS011;27171;51.812;19.514;2023-04-03T18:26:06;4.47;;;1.70;;
41426;SDS011;27171;51.812;19.514;2023-04-03T18:29:09;4.95;;;2.20;;
41426;SDS011;27171;51.812;19.514;2023-04-03T18:32:12;4.40;;;1.95;;
41426;SDS011;27171;51.812;19.514;2023-04-03T18:35:16;6.47;;;1.83;;
41426;SDS011;27171;51.812;19.514;2023-04-03T18:38:17;4.50;;;2.10;;
41426;SDS011;27171;51.812;19.514;2023-04-03T18:41:19;3.63;;;1.63;;
41426;SDS011;27171;51.812;19.514;2023-04-03T18:44:23;6.88;;;2.38;;
41426;SDS011;27171;51.812;19.514;2023-04-03T18:47:26;5.00;;;2.35;;
41426;SDS011;27171;51.812;19.514;2023-04-03T18:50:28;4.82;;;2.03;;
41426;SDS011;27171;51.812;19.514;2023-04-03T18:53:29;3.80;;;2.35;;
41426;SDS011;27171;51.812;19.514;2023-04-03T18:59:31;4.43;;;1.85;;
41426;SDS011;27171;51.812;19.514;2023-04-03T19:05:33;5.05;;;2.20;;
41426;SDS011;27171;51.812;19.514;2023-04-03T19:08:35;5.13;;;2.10;;
41426;SDS011;27171;51.812;19.514;2023-04-03T19:14:37;5.53;;;2.03;;
41426;SDS011;27171;51.812;19.514;2023-04-03T19:20:39;5.43;;;1.67;;
41426;SDS011;27171;51.812;19.514;2023-04-03T19:26:41;5.43;;;2.08;;
41426;SDS011;27171;51.812;19.514;2023-04-03T19:32:43;4.25;;;1.60;;
41426;SDS011;27171;51.812;19.514;2023-04-03T19:35:44;3.90;;;1.80;;
41426;SDS011;27171;51.812;19.514;2023-04-03T19:38:46;5.22;;;2.20;;
41426;SDS011;27171;51.812;19.514;2023-04-03T19:41:50;4.45;;;1.95;;
41426;SDS011;27171;51.812;19.514;2023-04-03T19:44:51;4.45;;;1.60;;
41426;SDS011;27171;51.812;19.514;2023-04-03T19:47:52;3.50;;;1.55;;
41426;SDS011;27171;51.812;19.514;2023-04-03T19:50:54;5.13;;;2.08;;
41426;SDS011;27171;51.812;19.514;2023-04-03T19:53:56;5.45;;;1.90;;
41426;SDS011;27171;51.812;19.514;2023-04-03T19:59:58;3.83;;;1.90;;
41426;SDS011;27171;51.812;19.514;2023-04-03T20:06:00;7.82;;;1.92;;
41426;SDS011;27171;51.812;19.514;2023-04-03T20:09:01;6.30;;;1.98;;
41426;SDS011;27171;51.812;19.514;2023-04-03T20:12:23;5.80;;;2.60;;
41426;SDS011;27171;51.812;19.514;2023-04-03T20:15:24;5.78;;;2.72;;
41426;SDS011;27171;51.812;19.514;2023-04-03T20:18:26;5.45;;;1.90;;
41426;SDS011;27171;51.812;19.514;2023-04-03T20:21:28;7.10;;;3.20;;
41426;SDS011;27171;51.812;19.514;2023-04-03T20:24:30;5.60;;;2.53;;
41426;SDS011;27171;51.812;19.514;2023-04-03T20:27:32;4.28;;;2.50;;
41426;SDS011;27171;51.812;19.514;2023-04-03T20:30:33;4.40;;;2.70;;
41426;SDS011;27171;51.812;19.514;2023-04-03T20:33:35;5.90;;;2.50;;
41426;SDS011;27171;51.812;19.514;2023-04-03T20:36:36;4.78;;;2.30;;
41426;SDS011;27171;51.812;19.514;2023-04-03T20:39:37;6.47;;;2.40;;
41426;SDS011;27171;51.812;19.514;2023-04-03T20:42:38;5.25;;;1.85;;
41426;SDS011;27171;51.812;19.514;2023-04-03T20:45:39;7.93;;;3.25;;
41426;SDS011;27171;51.812;19.514;2023-04-03T20:48:40;7.30;;;3.28;;
41426;SDS011;27171;51.812;19.514;2023-04-03T20:51:41;5.72;;;2.47;;
41426;SDS011;27171;51.812;19.514;2023-04-03T20:54:42;7.60;;;2.92;;
41426;SDS011;27171;51.812;19.514;2023-04-03T21:00:44;6.43;;;2.88;;
41426;SDS011;27171;51.812;19.514;2023-04-03T21:23:16;5.43;;;2.75;;
41426;SDS011;27171;51.812;19.514;2023-04-03T21:26:17;6.70;;;3.10;;
41426;SDS011;27171;51.812;19.514;2023-04-03T21:29:22;6.65;;;3.10;;
41426;SDS011;27171;51.812;19.514;2023-04-03T21:32:23;6.75;;;2.92;;
41426;SDS011;27171;51.812;19.514;2023-04-03T21:38:25;6.10;;;2.17;;
41426;SDS011;27171;51.812;19.514;2023-04-03T21:41:26;8.02;;;3.47;;
41426;SDS011;27171;51.812;19.514;2023-04-03T21:44:27;6.78;;;2.80;;
41426;SDS011;27171;51.812;19.514;2023-04-03T21:47:28;6.35;;;3.33;;
41426;SDS011;27171;51.812;19.514;2023-04-03T21:50:29;5.53;;;3.00;;
41426;SDS011;27171;51.812;19.514;2023-04-03T21:53:30;4.88;;;2.35;;
41426;SDS011;27171;51.812;19.514;2023-04-03T21:56:32;6.13;;;3.38;;
41426;SDS011;27171;51.812;19.514;2023-04-03T22:02:37;4.40;;;1.80;;
41426;SDS011;27171;51.812;19.514;2023-04-03T22:05:39;6.45;;;2.38;;
41426;SDS011;27171;51.812;19.514;2023-04-03T22:08:40;7.18;;;3.00;;
41426;SDS011;27171;51.812;19.514;2023-04-03T22:11:41;4.05;;;2.20;;
41426;SDS011;27171;51.812;19.514;2023-04-03T22:14:42;4.82;;;2.67;;
41426;SDS011;27171;51.812;19.514;2023-04-03T22:20:44;5.25;;;2.20;;
41426;SDS011;27171;51.812;19.514;2023-04-03T22:26:46;5.10;;;1.90;;
41426;SDS011;27171;51.812;19.514;2023-04-03T22:29:47;9.55;;;3.20;;
41426;SDS011;27171;51.812;19.514;2023-04-03T22:35:49;6.30;;;2.17;;
41426;SDS011;27171;51.812;19.514;2023-04-03T22:38:50;5.30;;;2.60;;
41426;SDS011;27171;51.812;19.514;2023-04-03T22:41:52;5.85;;;2.08;;
41426;SDS011;27171;51.812;19.514;2023-04-03T22:44:53;6.20;;;2.30;;
41426;SDS011;27171;51.812;19.514;2023-04-03T22:50:54;5.80;;;2.45;;